Enschede, Netherlands
Current Conditions -  °F | °C
As of 2:20 AM on Saturday 25 Oct 2014 (Local Time) from EDDG Reporting Station
Broken Clouds Broken Clouds  
Wind Chill: 54°   Ceiling: 1800
Heat Index: 54°   Visibility: 6mi
Dew Point: 46°   Wind: 6mph
Humidity: 77%   Direction: 180°S
Pressure: 30.03"   Gusts: NA
Location:  52.22°N, 6.9°E
Report Text: EDDG 250020Z 18005KT 9999 BKN018 12/08 Q1017 TEMPO 4000 -RA BKN013
Loading
Personal Weather Stations






























Interactive Weather Map
Tropical Storm Tracking
New forecast layout! Learn more

10-Day Weather Forecast

Advertisements
Track Severe Weather on mobile